Time;durP1;ratioP1;P1;durP2;ratioP2;P2;SDS_P1;SDS_P2;PMS_P1;PMS_P2;Temp;Humidity;BMP_temperature;BMP_pressure;BME280_temperature;BME280_humidity;BME280_pressure;Samples;Min_cycle;Max_cycle;Signal;HPM_P1;HPM_P2
2021/10/16 00:01:14;;;;;;;4.28;2.33;;;8.90;99.90;;;;;;5025384;28;20046;-84
2021/10/16 00:03:40;;;;;;;4.85;2.35;;;8.80;99.90;;;;;;5014598;28;20033;-82
2021/10/16 00:06:06;;;;;;;4.78;2.72;;;8.80;99.90;;;;;;5009438;28;20030;-83
2021/10/16 00:08:32;;;;;;;5.22;2.42;;;8.70;99.90;;;;;;5017798;28;20109;-83
2021/10/16 00:10:58;;;;;;;6.20;2.70;;;8.70;99.90;;;;;;4994481;28;20113;-83
2021/10/16 00:13:24;;;;;;;5.68;2.40;;;8.60;99.90;;;;;;5015759;28;20022;-83
2021/10/16 00:15:50;;;;;;;4.97;2.80;;;8.50;99.90;;;;;;5016931;28;20097;-83
2021/10/16 00:18:16;;;;;;;5.75;3.15;;;8.50;99.90;;;;;;5031145;28;20070;-83
2021/10/16 00:20:42;;;;;;;7.28;2.85;;;8.40;99.90;;;;;;5013553;28;20029;-83
2021/10/16 00:23:08;;;;;;;6.10;2.75;;;8.40;99.90;;;;;;5020465;28;20038;-84
2021/10/16 00:25:34;;;;;;;5.63;2.70;;;8.30;99.90;;;;;;5004229;28;20030;-83
2021/10/16 00:28:00;;;;;;;5.93;2.72;;;8.30;99.90;;;;;;5009596;28;20022;-83
2021/10/16 00:30:25;;;;;;;5.13;2.70;;;8.30;99.90;;;;;;5025862;28;20034;-83
2021/10/16 00:32:51;;;;;;;5.47;2.33;;;8.20;99.90;;;;;;5010415;28;20022;-83
2021/10/16 00:35:17;;;;;;;7.85;2.47;;;8.20;99.90;;;;;;5006979;28;20061;-83
2021/10/16 00:37:43;;;;;;;5.78;2.20;;;8.20;99.90;;;;;;5030785;28;20057;-82
2021/10/16 00:40:18;;;;;;;4.85;2.45;;;8.20;99.90;;;;;;5012632;28;20037;-83
2021/10/16 00:42:51;;;;;;;6.00;2.50;;;8.20;99.90;;;;;;5002965;28;20114;-81
2021/10/16 00:45:19;;;;;;;5.75;2.40;;;8.20;99.90;;;;;;5009385;28;20034;-82
2021/10/16 00:47:45;;;;;;;4.68;2.50;;;8.30;99.90;;;;;;4993842;28;20698;-83
2021/10/16 00:50:12;;;;;;;4.35;2.08;;;8.30;99.90;;;;;;5010758;28;20026;-82
2021/10/16 00:52:39;;;;;;;6.10;2.35;;;8.40;99.90;;;;;;4998930;28;20058;-83
2021/10/16 00:55:10;;;;;;;4.50;2.13;;;8.30;99.90;;;;;;5024767;28;20029;-83
2021/10/16 00:57:36;;;;;;;5.60;2.50;;;8.30;99.90;;;;;;5026162;28;20478;-82
2021/10/16 01:00:04;;;;;;;5.43;2.17;;;8.30;99.90;;;;;;5009967;28;20025;-83
2021/10/16 01:02:31;;;;;;;4.25;2.28;;;8.30;99.90;;;;;;5006308;28;20388;-83
2021/10/16 01:04:56;;;;;;;6.00;2.58;;;8.30;99.90;;;;;;5013626;28;20478;-82
2021/10/16 01:07:22;;;;;;;3.78;2.17;;;8.30;99.90;;;;;;5012709;28;20022;-83
2021/10/16 01:09:48;;;;;;;5.70;2.58;;;8.30;99.90;;;;;;5024700;28;20074;-83
2021/10/16 01:12:15;;;;;;;9.63;2.50;;;8.30;99.90;;;;;;5012723;28;20029;-83
2021/10/16 01:14:47;;;;;;;5.40;2.28;;;8.30;99.90;;;;;;5010699;28;20086;-82
2021/10/16 01:17:13;;;;;;;4.93;2.53;;;8.30;99.90;;;;;;4997341;28;20027;-84
2021/10/16 01:19:42;;;;;;;5.95;2.42;;;8.40;99.90;;;;;;5014024;28;20036;-83
2021/10/16 01:22:08;;;;;;;5.72;2.60;;;8.40;99.90;;;;;;5030659;28;20021;-82
2021/10/16 01:24:35;;;;;;;5.97;2.40;;;8.40;99.90;;;;;;5027803;22;20137;-82
2021/10/16 01:27:01;;;;;;;5.07;2.63;;;8.40;99.90;;;;;;5012357;28;20025;-82
2021/10/16 01:29:29;;;;;;;5.03;2.25;;;8.40;99.90;;;;;;5031520;28;20117;-82
2021/10/16 01:31:59;;;;;;;4.80;2.30;;;8.50;99.90;;;;;;5008237;28;20030;-82
2021/10/16 01:34:25;;;;;;;3.55;1.85;;;8.50;99.90;;;;;;5007499;28;20030;-81
2021/10/16 01:36:51;;;;;;;6.32;2.80;;;8.50;99.90;;;;;;5003095;28;20030;-81
2021/10/16 01:39:18;;;;;;;6.75;3.00;;;8.50;99.90;;;;;;5029934;28;20045;-82
2021/10/16 01:41:44;;;;;;;3.85;2.00;;;8.50;99.90;;;;;;4997250;28;20076;-82
2021/10/16 01:44:10;;;;;;;4.63;2.47;;;8.50;99.90;;;;;;5016931;28;20126;-81
2021/10/16 01:46:36;;;;;;;5.78;2.40;;;8.50;99.90;;;;;;5010530;28;20604;-82
2021/10/16 01:49:16;;;;;;;4.18;2.33;;;8.50;99.90;;;;;;5016350;28;20037;-81
2021/10/16 01:51:43;;;;;;;5.13;2.63;;;8.50;99.90;;;;;;5015980;28;20029;-82
2021/10/16 01:54:09;;;;;;;6.53;2.47;;;8.50;99.90;;;;;;5015502;28;20555;-82
2021/10/16 01:56:35;;;;;;;4.00;2.60;;;8.50;99.90;;;;;;5003216;28;20026;-82
2021/10/16 01:59:18;;;;;;;6.38;2.88;;;8.50;99.90;;;;;;5016492;28;20022;-82
2021/10/16 02:01:44;;;;;;;5.18;2.83;;;8.40;99.90;;;;;;4996383;28;20022;-81
2021/10/16 02:04:11;;;;;;;6.63;3.30;;;8.40;99.90;;;;;;5015454;28;20057;-82
2021/10/16 02:06:37;;;;;;;5.82;3.20;;;8.40;99.90;;;;;;5017201;28;20038;-81
2021/10/16 02:09:04;;;;;;;7.50;2.78;;;8.40;99.90;;;;;;5015326;28;20009;-82
2021/10/16 02:11:29;;;;;;;5.82;3.00;;;8.40;99.90;;;;;;5013946;28;20038;-82
2021/10/16 02:13:55;;;;;;;6.65;2.92;;;8.40;99.90;;;;;;5011446;28;20025;-81
2021/10/16 02:16:20;;;;;;;7.03;3.47;;;8.40;99.90;;;;;;5018789;28;20022;-81
2021/10/16 02:18:46;;;;;;;5.85;3.20;;;8.40;99.90;;;;;;5030219;28;20025;-81
2021/10/16 02:21:12;;;;;;;6.60;2.70;;;8.40;99.90;;;;;;5012767;28;20054;-82
2021/10/16 02:23:37;;;;;;;5.78;2.88;;;8.40;99.90;;;;;;5017764;28;20030;-81
2021/10/16 02:26:03;;;;;;;8.07;3.72;;;8.40;99.90;;;;;;5015397;28;20038;-82
2021/10/16 02:28:29;;;;;;;6.72;3.10;;;8.50;99.90;;;;;;5027869;28;20042;-81
2021/10/16 02:30:54;;;;;;;8.60;3.60;;;8.50;99.90;;;;;;5027246;28;20030;-82
2021/10/16 02:33:20;;;;;;;6.95;3.25;;;8.50;99.90;;;;;;5030403;28;20041;-82
2021/10/16 02:35:45;;;;;;;7.90;3.50;;;8.50;99.90;;;;;;5013972;28;20033;-81
2021/10/16 02:38:11;;;;;;;6.13;2.88;;;8.50;99.90;;;;;;5016545;28;20018;-82
2021/10/16 02:40:36;;;;;;;6.63;2.80;;;8.50;99.90;;;;;;5016406;28;20586;-82
2021/10/16 02:43:04;;;;;;;7.35;3.50;;;8.50;99.90;;;;;;5016046;28;20030;-81
2021/10/16 02:45:30;;;;;;;8.93;4.57;;;8.50;99.90;;;;;;5014046;28;20040;-82
2021/10/16 02:47:55;;;;;;;8.82;4.32;;;8.60;99.90;;;;;;5017196;28;20108;-82
2021/10/16 02:50:21;;;;;;;9.77;4.88;;;8.60;99.90;;;;;;5014981;28;20048;-82
2021/10/16 02:52:46;;;;;;;10.98;4.60;;;8.60;99.90;;;;;;5014523;28;20100;-82
2021/10/16 02:55:12;;;;;;;9.88;4.90;;;8.60;99.90;;;;;;5026313;28;20566;-82
2021/10/16 02:57:38;;;;;;;9.00;4.25;;;8.60;99.90;;;;;;5001632;28;20041;-82
2021/10/16 03:00:05;;;;;;;12.20;5.82;;;8.60;99.90;;;;;;5016107;28;20022;-81
2021/10/16 03:02:30;;;;;;;10.05;4.85;;;8.60;99.90;;;;;;5015263;28;20029;-81
2021/10/16 03:04:56;;;;;;;12.45;5.05;;;8.50;99.90;;;;;;5026606;28;20279;-81
2021/10/16 03:07:21;;;;;;;10.45;5.75;;;8.60;99.90;;;;;;5002407;28;20033;-82
2021/10/16 03:09:47;;;;;;;11.10;5.28;;;8.50;99.90;;;;;;5025076;28;20053;-81
2021/10/16 03:12:13;;;;;;;11.77;6.28;;;8.50;99.90;;;;;;5015562;28;20030;-82
2021/10/16 03:14:38;;;;;;;11.15;5.60;;;8.50;99.90;;;;;;4995048;28;20053;-82
2021/10/16 03:17:04;;;;;;;11.88;5.55;;;8.50;99.90;;;;;;5016616;28;20026;-81
2021/10/16 03:19:29;;;;;;;12.85;6.55;;;8.50;99.90;;;;;;5013054;28;20101;-81
2021/10/16 03:21:56;;;;;;;11.77;5.80;;;8.60;99.90;;;;;;5026663;28;20038;-82
2021/10/16 03:24:23;;;;;;;11.63;5.97;;;8.50;99.90;;;;;;5030818;28;20026;-82
2021/10/16 03:26:48;;;;;;;10.52;5.50;;;8.50;99.90;;;;;;5016129;28;20402;-82
2021/10/16 03:29:14;;;;;;;11.65;4.55;;;8.50;99.90;;;;;;5013571;28;20026;-82
2021/10/16 03:31:40;;;;;;;8.95;4.57;;;8.40;99.90;;;;;;5005886;28;20101;-82
2021/10/16 03:34:05;;;;;;;10.82;5.15;;;8.50;99.90;;;;;;5014935;28;20022;-82
2021/10/16 03:36:31;;;;;;;12.00;5.65;;;8.40;99.90;;;;;;5003884;28;20022;-81
2021/10/16 03:38:57;;;;;;;8.68;4.57;;;8.40;99.90;;;;;;5014588;28;20084;-82
2021/10/16 03:41:22;;;;;;;10.05;5.15;;;8.40;99.90;;;;;;5016062;28;20057;-82
2021/10/16 03:43:48;;;;;;;9.20;5.25;;;8.40;99.90;;;;;;5015234;28;20080;-82
2021/10/16 03:46:14;;;;;;;8.75;4.25;;;8.40;99.90;;;;;;5015028;28;20030;-82
2021/10/16 03:48:41;;;;;;;7.55;3.83;;;8.40;99.90;;;;;;5031420;28;20026;-82
2021/10/16 03:51:06;;;;;;;7.85;4.18;;;8.30;99.90;;;;;;5011409;28;20018;-82
2021/10/16 03:53:32;;;;;;;8.45;4.28;;;8.20;99.90;;;;;;5009437;28;20067;-82
2021/10/16 03:55:57;;;;;;;7.50;4.18;;;8.20;99.90;;;;;;5012903;28;20049;-82
2021/10/16 03:58:23;;;;;;;8.35;4.13;;;8.20;99.90;;;;;;5011148;28;20075;-81
2021/10/16 04:00:48;;;;;;;7.00;3.58;;;8.10;99.90;;;;;;5013731;28;20787;-82
2021/10/16 04:03:15;;;;;;;6.70;3.50;;;8.10;99.90;;;;;;5013544;28;20107;-81
2021/10/16 04:05:41;;;;;;;9.02;4.00;;;8.10;99.90;;;;;;4998870;28;20026;-82
2021/10/16 04:08:08;;;;;;;5.85;3.30;;;8.10;99.90;;;;;;5011492;28;20052;-82
2021/10/16 04:10:34;;;;;;;5.93;3.22;;;8.10;99.90;;;;;;5011245;28;20021;-81
2021/10/16 04:13:01;;;;;;;7.95;3.55;;;8.10;99.90;;;;;;5025733;28;20037;-83
2021/10/16 04:15:27;;;;;;;7.72;3.70;;;8.10;99.90;;;;;;5014662;28;20029;-82
2021/10/16 04:17:52;;;;;;;6.97;3.75;;;8.10;99.90;;;;;;5014223;28;20375;-82
2021/10/16 04:20:18;;;;;;;7.47;3.15;;;8.10;99.90;;;;;;5012597;28;20083;-82
2021/10/16 04:22:43;;;;;;;6.28;3.00;;;8.10;99.90;;;;;;5015507;28;20144;-82
2021/10/16 04:25:09;;;;;;;6.65;3.30;;;8.10;99.90;;;;;;5009353;28;20092;-82
2021/10/16 04:27:36;;;;;;;7.25;3.58;;;8.10;99.90;;;;;;5012174;28;20034;-82
2021/10/16 04:30:02;;;;;;;7.78;3.50;;;8.10;99.90;;;;;;5012682;28;20113;-81
2021/10/16 04:32:28;;;;;;;7.43;3.33;;;8.10;99.90;;;;;;5006379;28;20030;-82
2021/10/16 04:34:54;;;;;;;8.35;3.70;;;8.00;99.90;;;;;;5008188;28;20442;-82
2021/10/16 04:37:19;;;;;;;6.05;2.92;;;8.00;99.90;;;;;;4976660;28;20229;-82
2021/10/16 04:39:45;;;;;;;7.75;3.25;;;8.00;99.90;;;;;;4973492;28;20891;-82
2021/10/16 04:42:12;;;;;;;5.03;2.80;;;7.90;99.90;;;;;;4989476;28;20031;-82
2021/10/16 04:44:38;;;;;;;6.95;3.20;;;8.00;99.90;;;;;;4990249;28;20038;-82
2021/10/16 04:47:05;;;;;;;7.07;3.67;;;7.90;99.90;;;;;;4975753;28;20132;-82
2021/10/16 04:49:30;;;;;;;8.70;4.05;;;8.00;99.90;;;;;;4974400;28;20039;-82
2021/10/16 04:51:56;;;;;;;6.50;3.30;;;7.90;99.90;;;;;;4977335;28;20061;-82
2021/10/16 04:54:22;;;;;;;6.43;3.60;;;7.90;99.90;;;;;;4993552;28;20024;-82
2021/10/16 04:56:47;;;;;;;7.90;4.53;;;7.90;99.90;;;;;;4994012;28;20027;-82
2021/10/16 04:59:13;;;;;;;7.78;3.28;;;7.90;99.90;;;;;;4994133;28;20027;-82
2021/10/16 05:01:38;;;;;;;9.68;3.83;;;7.90;99.90;;;;;;4992416;28;20038;-82
2021/10/16 05:04:04;;;;;;;5.13;2.75;;;7.90;99.90;;;;;;4992157;28;20058;-82
2021/10/16 05:06:33;;;;;;;4.72;2.70;;;7.90;99.90;;;;;;4994116;28;20031;-82
2021/10/16 05:08:59;;;;;;;6.90;2.75;;;7.90;99.90;;;;;;4993926;28;20035;-82
2021/10/16 05:11:24;;;;;;;5.97;2.78;;;7.90;99.90;;;;;;4973464;28;20035;-82
2021/10/16 05:13:50;;;;;;;5.10;2.67;;;7.90;99.90;;;;;;4974676;28;20038;-82
2021/10/16 05:16:16;;;;;;;6.65;2.90;;;7.90;99.90;;;;;;4973218;28;20038;-82
2021/10/16 05:18:41;;;;;;;5.80;3.30;;;7.90;99.90;;;;;;4975135;28;20038;-82
2021/10/16 05:21:07;;;;;;;6.45;2.60;;;7.90;99.90;;;;;;4972745;28;20062;-82
2021/10/16 05:23:32;;;;;;;6.28;2.97;;;8.00;99.90;;;;;;4992005;28;20026;-82
2021/10/16 05:25:58;;;;;;;6.45;2.55;;;8.00;99.90;;;;;;5002783;28;20061;-82
2021/10/16 05:28:24;;;;;;;6.70;2.70;;;7.90;99.90;;;;;;4993403;28;20035;-82
2021/10/16 05:30:50;;;;;;;5.75;3.00;;;7.90;99.90;;;;;;4990998;28;20023;-82
2021/10/16 05:33:15;;;;;;;5.65;2.63;;;8.00;99.90;;;;;;5001021;28;20394;-82
2021/10/16 05:35:44;;;;;;;5.10;2.90;;;8.00;99.90;;;;;;4987726;28;20049;-82
2021/10/16 05:38:13;;;;;;;5.78;2.88;;;8.00;99.90;;;;;;4995022;28;20565;-82
2021/10/16 05:40:39;;;;;;;6.35;3.03;;;8.00;99.90;;;;;;4994070;28;20499;-82
2021/10/16 05:43:05;;;;;;;6.50;3.03;;;8.00;99.90;;;;;;4993566;28;20076;-82
2021/10/16 05:45:31;;;;;;;10.57;3.58;;;8.00;99.90;;;;;;4980228;28;20376;-82
2021/10/16 05:47:57;;;;;;;7.32;3.05;;;8.10;99.90;;;;;;4973585;28;20034;-82
2021/10/16 05:50:23;;;;;;;5.80;2.80;;;8.10;99.90;;;;;;4973413;28;20034;-82
2021/10/16 05:52:48;;;;;;;5.70;2.78;;;8.10;99.90;;;;;;4974268;28;20031;-82
2021/10/16 05:55:14;;;;;;;5.13;3.00;;;8.10;99.90;;;;;;4994034;28;20158;-82
2021/10/16 05:57:39;;;;;;;6.10;3.10;;;8.10;99.90;;;;;;5003873;28;20033;-82
2021/10/16 06:00:06;;;;;;;5.95;3.00;;;8.20;99.90;;;;;;5027806;28;20168;-82
2021/10/16 06:02:31;;;;;;;7.43;3.42;;;8.10;99.90;;;;;;5009726;28;20033;-82
2021/10/16 06:04:57;;;;;;;5.45;3.50;;;8.20;99.90;;;;;;5008967;28;20034;-81
2021/10/16 06:07:23;;;;;;;6.25;3.05;;;8.10;99.90;;;;;;5017267;28;20127;-81
2021/10/16 06:09:48;;;;;;;5.78;2.80;;;8.10;99.90;;;;;;5011397;28;20063;-82
2021/10/16 06:12:14;;;;;;;6.07;2.90;;;8.20;99.90;;;;;;5009930;28;20030;-82
2021/10/16 06:14:39;;;;;;;7.57;2.72;;;8.20;99.90;;;;;;5017505;28;20030;-81
2021/10/16 06:17:05;;;;;;;6.07;2.88;;;8.20;99.90;;;;;;5014725;28;20099;-82
2021/10/16 06:19:31;;;;;;;5.60;2.75;;;8.30;99.90;;;;;;5016568;28;20026;-82
2021/10/16 06:21:57;;;;;;;7.65;3.42;;;8.20;99.90;;;;;;5010577;28;20039;-82
2021/10/16 06:24:22;;;;;;;7.03;3.28;;;8.20;99.90;;;;;;5013355;28;20057;-82
2021/10/16 06:26:48;;;;;;;9.10;3.17;;;8.20;99.90;;;;;;5011213;28;20037;-82
2021/10/16 06:29:14;;;;;;;5.80;2.83;;;8.30;99.90;;;;;;5016159;28;20040;-83
2021/10/16 06:31:39;;;;;;;6.85;3.17;;;8.30;99.90;;;;;;5012824;28;20671;-82
2021/10/16 06:34:05;;;;;;;7.30;3.83;;;8.30;99.90;;;;;;5026537;28;20029;-82
2021/10/16 06:36:30;;;;;;;8.27;4.28;;;8.30;99.90;;;;;;4999093;28;20558;-82
2021/10/16 06:38:56;;;;;;;5.97;3.20;;;8.40;99.90;;;;;;5011401;28;20037;-82
2021/10/16 06:41:21;;;;;;;6.20;2.67;;;8.30;99.90;;;;;;5014282;28;20253;-82
2021/10/16 06:43:47;;;;;;;5.63;2.85;;;8.40;99.90;;;;;;5006000;28;20111;-82
2021/10/16 06:46:12;;;;;;;5.25;2.80;;;8.40;99.90;;;;;;4998276;28;20039;-82
2021/10/16 06:48:38;;;;;;;5.43;2.88;;;8.40;99.90;;;;;;5000588;28;20041;-82
2021/10/16 06:51:04;;;;;;;6.47;3.17;;;8.40;99.90;;;;;;4983274;28;20755;-83
2021/10/16 06:53:29;;;;;;;7.60;3.17;;;8.50;99.90;;;;;;4996583;28;20030;-82
2021/10/16 06:55:55;;;;;;;6.75;3.63;;;8.50;99.90;;;;;;4984883;28;20066;-82
2021/10/16 06:58:21;;;;;;;7.97;4.50;;;8.50;99.90;;;;;;4981433;28;20041;-83
2021/10/16 07:00:46;;;;;;;7.85;3.67;;;8.50;99.90;;;;;;5001482;28;20025;-83
2021/10/16 07:03:14;;;;;;;8.10;4.18;;;8.50;99.90;;;;;;4984335;28;20466;-83
2021/10/16 07:05:43;;;;;;;9.15;3.75;;;8.60;99.90;;;;;;4983947;28;20045;-82
2021/10/16 07:08:09;;;;;;;7.60;3.78;;;8.50;99.90;;;;;;4982622;28;20127;-82
2021/10/16 07:10:38;;;;;;;6.38;3.17;;;8.60;99.90;;;;;;4982284;28;20077;-82
2021/10/16 07:13:05;;;;;;;7.60;4.55;;;8.60;99.90;;;;;;4980106;28;20043;-82
2021/10/16 07:15:31;;;;;;;7.95;4.25;;;8.70;99.90;;;;;;4981704;28;20441;-83
2021/10/16 07:17:58;;;;;;;8.30;4.15;;;8.60;99.90;;;;;;4993635;28;20042;-81
2021/10/16 07:20:23;;;;;;;7.75;4.40;;;8.80;99.90;;;;;;5001580;28;20034;-82
2021/10/16 07:22:49;;;;;;;7.25;4.28;;;8.70;99.90;;;;;;4983782;28;20049;-81
2021/10/16 07:25:14;;;;;;;9.00;4.35;;;8.70;99.90;;;;;;5016817;28;20038;-83
2021/10/16 07:27:40;;;;;;;8.85;4.85;;;8.70;99.90;;;;;;5012285;28;20041;-82
2021/10/16 07:30:06;;;;;;;7.88;4.30;;;8.80;99.90;;;;;;4987033;28;20567;-82
2021/10/16 07:32:32;;;;;;;9.05;4.55;;;8.80;99.90;;;;;;4984391;28;20090;-82
2021/10/16 07:34:57;;;;;;;8.43;4.55;;;8.80;99.90;;;;;;4977862;28;20042;-82
2021/10/16 07:37:23;;;;;;;8.75;4.80;;;8.80;99.90;;;;;;4982413;28;20082;-83
2021/10/16 07:39:49;;;;;;;10.48;4.22;;;8.80;99.90;;;;;;4980280;28;20416;-83
2021/10/16 07:42:14;;;;;;;8.02;4.40;;;8.80;99.90;;;;;;4977857;28;20037;-82
2021/10/16 07:44:40;;;;;;;10.02;4.82;;;8.80;99.90;;;;;;4976476;28;20031;-82
2021/10/16 07:47:06;;;;;;;9.43;4.70;;;8.90;99.90;;;;;;4978382;28;20114;-82
2021/10/16 07:49:32;;;;;;;10.77;4.93;;;8.90;99.90;;;;;;4980648;28;20445;-82
2021/10/16 07:51:57;;;;;;;8.60;4.80;;;8.90;99.90;;;;;;4978605;28;20035;-83
2021/10/16 07:54:23;;;;;;;8.32;3.72;;;9.00;99.90;;;;;;4979154;28;20023;-82
2021/10/16 07:56:49;;;;;;;6.25;3.22;;;9.00;99.90;;;;;;4984226;28;20034;-83
2021/10/16 07:59:15;;;;;;;5.82;3.20;;;9.00;99.90;;;;;;4982893;28;20023;-82
2021/10/16 08:01:41;;;;;;;7.50;3.33;;;9.10;99.90;;;;;;4980872;28;20035;-81
2021/10/16 08:04:07;;;;;;;15.15;8.65;;;9.20;99.90;;;;;;4980087;28;20067;-83
2021/10/16 08:06:33;;;;;;;15.25;7.45;;;9.20;99.90;;;;;;5009781;28;20568;-82
2021/10/16 08:09:01;;;;;;;13.15;6.75;;;9.30;99.90;;;;;;4991609;28;20121;-83
2021/10/16 08:11:27;;;;;;;11.85;5.35;;;9.30;99.90;;;;;;4994359;28;20086;-82
2021/10/16 08:13:53;;;;;;;12.07;7.18;;;9.40;99.90;;;;;;4998708;28;20078;-82
2021/10/16 08:16:18;;;;;;;12.15;5.68;;;9.40;99.90;;;;;;5009685;28;20029;-82
2021/10/16 08:18:44;;;;;;;12.40;5.45;;;9.40;99.90;;;;;;4986883;28;20023;-83
2021/10/16 08:21:10;;;;;;;11.15;5.20;;;9.40;99.90;;;;;;4998679;28;20033;-83
2021/10/16 08:23:35;;;;;;;12.63;6.20;;;9.40;99.90;;;;;;5012403;28;20053;-82
2021/10/16 08:26:01;;;;;;;9.27;5.35;;;9.40;99.90;;;;;;4987233;28;20041;-84
2021/10/16 08:28:31;;;;;;;10.50;5.15;;;9.50;99.90;;;;;;4995622;28;20026;-83
2021/10/16 08:31:00;;;;;;;12.35;6.18;;;9.50;99.90;;;;;;5001701;28;20030;-83
2021/10/16 08:33:26;;;;;;;12.60;6.03;;;9.60;99.90;;;;;;4994619;28;20057;-83
2021/10/16 08:35:51;;;;;;;13.82;6.65;;;9.50;99.90;;;;;;4998724;28;20046;-83
2021/10/16 08:38:17;;;;;;;14.98;7.03;;;9.50;99.90;;;;;;4970288;28;20062;-83
2021/10/16 08:40:43;;;;;;;11.35;6.00;;;9.50;99.90;;;;;;4969522;28;20054;-84
2021/10/16 08:43:09;;;;;;;14.95;6.38;;;9.50;99.90;;;;;;4969669;28;20503;-83
2021/10/16 08:45:36;;;;;;;12.77;6.60;;;9.60;99.90;;;;;;4971185;28;20038;-83
2021/10/16 08:48:06;;;;;;;16.20;7.20;;;9.60;99.90;;;;;;4969936;28;20034;-83
2021/10/16 08:50:34;;;;;;;16.48;7.47;;;9.60;99.90;;;;;;4970029;28;20034;-83
2021/10/16 08:52:59;;;;;;;15.85;7.55;;;9.60;99.90;;;;;;4971686;28;20023;-83
2021/10/16 08:55:25;;;;;;;15.48;6.68;;;9.70;99.90;;;;;;4992170;28;20112;-84
2021/10/16 08:57:51;;;;;;;16.44;6.74;;;9.70;99.90;;;;;;5002415;22;1091996;-83
2021/10/16 09:00:37;;;;;;;15.35;7.57;;;9.80;99.90;;;;;;5012126;28;20030;-83
2021/10/16 09:03:27;;;;;;;16.58;7.03;;;9.80;99.90;;;;;;5010136;28;20112;-83
2021/10/16 09:06:30;;;;;;;13.43;6.93;;;9.80;99.90;;;;;;5017811;28;20038;-85
2021/10/16 09:09:06;;;;;;;;;;;9.80;99.90;;;;;;4973177;28;20030;-83
2021/10/16 09:11:37;;;;;;;15.25;6.95;;;9.90;99.90;;;;;;4990570;28;20409;-83
2021/10/16 09:14:12;;;;;;;14.95;7.18;;;9.90;99.90;;;;;;5023527;28;20026;-83
2021/10/16 09:16:43;;;;;;;15.77;7.45;;;9.90;99.90;;;;;;5013769;28;20025;-83
2021/10/16 09:19:11;;;;;;;15.38;7.97;;;10.00;99.90;;;;;;5011585;28;20037;-83
2021/10/16 09:21:50;;;;;;;13.65;7.53;;;10.00;99.90;;;;;;5009293;28;20153;-83
2021/10/16 09:24:26;;;;;;;13.60;6.85;;;10.00;99.90;;;;;;5013823;28;20083;-83
2021/10/16 09:26:59;;;;;;;17.35;7.68;;;10.10;99.90;;;;;;5013552;28;20045;-83
2021/10/16 09:29:29;;;;;;;14.38;7.40;;;10.10;99.90;;;;;;5013010;28;20030;-84
2021/10/16 09:31:58;;;;;;;15.48;8.02;;;10.10;99.90;;;;;;5011498;28;20036;-84
2021/10/16 09:34:29;;;;;;;14.20;7.47;;;10.20;99.90;;;;;;5012920;28;20054;-84
2021/10/16 09:37:13;;;;;;;14.07;6.72;;;10.20;99.90;;;;;;5013885;28;20029;-84
2021/10/16 09:40:00;;;;;;;13.15;7.38;;;10.30;99.90;;;;;;5014056;28;20025;-84
2021/10/16 09:42:33;;;;;;;14.73;7.10;;;10.30;99.90;;;;;;5027293;28;20043;-85
2021/10/16 09:45:05;;;;;;;14.98;6.70;;;10.40;99.90;;;;;;5018601;28;20088;-84
2021/10/16 09:47:31;;;;;;;;;;;10.50;99.90;;;;;;5017389;28;20094;-84
2021/10/16 09:50:06;;;;;;;11.25;5.72;;;10.60;99.90;;;;;;5016413;28;19967;-84
2021/10/16 09:52:40;;;;;;;12.05;6.60;;;10.60;99.90;;;;;;5017390;28;20430;-85
2021/10/16 09:55:12;;;;;;;12.30;6.40;;;10.70;99.90;;;;;;5005067;28;20109;-83
2021/10/16 09:57:40;;;;;;;11.65;6.78;;;10.80;99.90;;;;;;5017402;28;20064;-85
2021/10/16 10:00:07;;;;;;;13.80;6.35;;;10.80;99.90;;;;;;5016923;28;20030;-84
2021/10/16 10:02:33;;;;;;;15.10;6.85;;;10.90;99.90;;;;;;5017932;28;20032;-84
2021/10/16 10:05:04;;;;;;;15.63;7.45;;;11.10;99.90;;;;;;5017916;28;20486;-84
2021/10/16 10:07:32;;;;;;;18.30;6.43;;;11.10;99.90;;;;;;5017706;28;20037;-85
2021/10/16 10:09:58;;;;;;;17.20;7.55;;;11.20;99.90;;;;;;5015785;28;20037;-84
2021/10/16 10:12:25;;;;;;;12.80;6.10;;;11.30;99.90;;;;;;5017585;28;20018;-85
2021/10/16 10:14:51;;;;;;;19.33;7.30;;;11.30;99.90;;;;;;5017307;28;20127;-85
2021/10/16 10:17:23;;;;;;;16.55;8.02;;;11.50;99.90;;;;;;5017658;28;20486;-84
2021/10/16 10:19:54;;;;;;;17.05;7.25;;;11.60;99.90;;;;;;5018067;28;20025;-84
2021/10/16 10:22:21;;;;;;;16.67;7.57;;;11.70;99.90;;;;;;5018573;28;20053;-85
2021/10/16 10:24:52;;;;;;;14.75;7.15;;;11.80;99.90;;;;;;5017786;28;20073;-85
2021/10/16 10:27:21;;;;;;;17.00;8.68;;;11.80;99.90;;;;;;5015864;28;20509;-84
2021/10/16 10:29:52;;;;;;;17.65;8.82;;;12.00;99.90;;;;;;5007135;28;20025;-84
2021/10/16 10:32:22;;;;;;;16.67;7.43;;;12.20;99.90;;;;;;5028800;28;20030;-84
2021/10/16 10:35:08;;;;;;;13.95;7.18;;;12.30;99.90;;;;;;5013105;28;20026;-84
2021/10/16 10:37:44;;;;;;;15.30;7.15;;;12.30;99.90;;;;;;5013946;28;20023;-84
2021/10/16 10:40:16;;;;;;;14.98;6.72;;;12.30;99.90;;;;;;5017203;28;20025;-84
2021/10/16 10:42:51;;;;;;;18.17;8.02;;;12.50;99.90;;;;;;5020147;28;20037;-84
2021/10/16 10:45:47;;;;;;;15.32;7.05;;;12.60;99.90;;;;;;5021184;28;20022;-84
2021/10/16 10:48:15;;;;;;;15.48;7.65;;;12.80;99.90;;;;;;5015452;28;20041;-85
2021/10/16 10:50:42;;;;;;;15.35;7.80;;;12.90;99.90;;;;;;5018647;28;20041;-85
2021/10/16 10:53:08;;;;;;;13.93;6.97;;;13.00;99.90;;;;;;5014207;28;20038;-85
2021/10/16 10:56:19;;;;;;;15.55;7.18;;;13.10;99.90;;;;;;4999609;28;20042;-85
2021/10/16 10:58:54;;;;;;;10.07;5.82;;;13.00;99.90;;;;;;5016310;28;20096;-85
2021/10/16 11:01:51;;;;;;;9.18;5.47;;;12.80;99.90;;;;;;5013596;28;20030;-86
2021/10/16 11:04:35;;;;;;;11.82;5.85;;;13.00;99.90;;;;;;5006883;28;20030;-85
2021/10/16 11:07:04;;;;;;;10.65;5.60;;;13.10;99.90;;;;;;5016971;28;20564;-85
2021/10/16 11:09:30;;;;;;;10.52;5.97;;;13.00;99.90;;;;;;5018602;28;20030;-86
2021/10/16 11:11:55;;;;;;;13.60;5.60;;;13.00;99.90;;;;;;5017594;28;20510;-85
2021/10/16 11:14:38;;;;;;;10.18;5.45;;;12.90;99.90;;;;;;5003837;28;20026;-84
2021/10/16 11:17:10;;;;;;;9.70;5.65;;;13.00;99.90;;;;;;5020370;28;20050;-81
2021/10/16 11:20:06;;;;;;;8.88;5.00;;;13.10;99.90;;;;;;4999680;28;20018;-83
2021/10/16 11:22:58;;;;;;;13.25;5.97;;;13.10;99.90;;;;;;5010502;28;20034;-84
2021/10/16 11:25:26;;;;;;;9.65;5.15;;;13.00;99.90;;;;;;5014671;28;20069;-84
2021/10/16 11:28:13;;;;;;;9.32;4.60;;;13.00;99.90;;;;;;5012517;28;20034;-82
2021/10/16 11:30:43;;;;;;;9.73;4.80;;;13.00;99.90;;;;;;5008295;28;20041;-83
2021/10/16 11:33:11;;;;;;;7.97;4.93;;;13.20;99.90;;;;;;5016667;28;20045;-84
2021/10/16 11:35:39;;;;;;;9.45;5.25;;;13.20;99.90;;;;;;5016939;28;20030;-84
2021/10/16 11:38:08;;;;;;;11.23;5.25;;;13.10;99.90;;;;;;5016744;28;20049;-83
2021/10/16 11:40:35;;;;;;;8.45;4.95;;;13.30;99.90;;;;;;5017477;28;20026;-83
2021/10/16 11:43:32;;;;;;;9.13;5.22;;;13.30;99.90;;;;;;5011208;28;20037;-83
2021/10/16 11:45:58;;;;;;;8.30;4.57;;;13.40;99.90;;;;;;5017145;28;20045;-85
2021/10/16 11:48:25;;;;;;;9.50;5.00;;;13.50;99.90;;;;;;5020878;28;20040;-82
2021/10/16 11:50:58;;;;;;;9.60;4.55;;;13.60;99.90;;;;;;5013465;28;20407;-83
2021/10/16 11:53:25;;;;;;;;;;;13.70;99.90;;;;;;5006546;28;20029;-83
2021/10/16 11:55:57;;;;;;;8.75;4.97;;;13.60;99.90;;;;;;5012383;28;20425;-82
2021/10/16 11:58:26;;;;;;;9.18;4.63;;;13.50;99.90;;;;;;5012329;28;20418;-81
2021/10/16 12:00:53;;;;;;;7.78;4.35;;;13.50;99.90;;;;;;5016371;28;20072;-80
2021/10/16 12:03:20;;;;;;;7.25;5.10;;;13.50;99.90;;;;;;5015537;28;20034;-83
2021/10/16 12:05:49;;;;;;;8.80;5.05;;;13.50;99.90;;;;;;5015768;28;20129;-83
2021/10/16 12:08:16;;;;;;;7.10;4.55;;;13.60;99.90;;;;;;5016771;28;20022;-83
2021/10/16 12:10:52;;;;;;;10.73;5.97;;;13.60;99.90;;;;;;5016920;28;20029;-84
2021/10/16 12:13:34;;;;;;;9.10;5.13;;;13.60;99.90;;;;;;5011512;28;20023;-85
2021/10/16 12:16:10;;;;;;;;;;;13.70;99.90;;;;;;4998729;28;20033;-83
2021/10/16 12:18:36;;;;;;;8.85;4.90;;;13.70;99.90;;;;;;4998287;28;19916;-83
2021/10/16 12:21:04;;;;;;;9.25;4.82;;;13.90;99.90;;;;;;4997493;28;20094;-83
2021/10/16 12:23:49;;;;;;;8.15;5.43;;;13.80;99.90;;;;;;4997328;28;20041;-84
2021/10/16 12:26:29;;;;;;;9.15;5.38;;;13.70;99.90;;;;;;4998403;28;20057;-84
2021/10/16 12:28:56;;;;;;;8.48;4.45;;;13.80;99.90;;;;;;5013760;28;20491;-84
2021/10/16 12:31:24;;;;;;;8.35;4.90;;;13.90;99.90;;;;;;4997376;28;20108;-83
2021/10/16 12:34:03;;;;;;;9.40;4.78;;;14.10;99.90;;;;;;5011740;28;20026;-81
2021/10/16 12:36:42;;;;;;;7.85;4.13;;;14.30;99.90;;;;;;5017477;28;20026;-83
2021/10/16 12:39:09;;;;;;;8.75;4.72;;;14.20;99.90;;;;;;5016309;28;20122;-81
2021/10/16 12:41:45;;;;;;;7.63;4.38;;;14.30;99.90;;;;;;5015322;28;20025;-84
2021/10/16 12:44:16;;;;;;;7.03;3.88;;;14.50;99.90;;;;;;5016882;28;20055;-84
2021/10/16 12:46:42;;;;;;;7.80;4.57;;;14.60;99.90;;;;;;5016359;28;20022;-82
2021/10/16 12:49:11;;;;;;;8.30;4.70;;;14.50;99.90;;;;;;5016447;28;20041;-83
2021/10/16 12:51:41;;;;;;;7.57;4.40;;;14.60;99.90;;;;;;5016948;28;20241;-83
2021/10/16 12:54:06;;;;;;;8.00;4.32;;;14.60;99.90;;;;;;5016986;28;20030;-83
2021/10/16 12:56:32;;;;;;;4.60;2.88;;;14.80;99.90;;;;;;5016405;28;20036;-81
2021/10/16 12:58:59;;;;;;;7.40;4.05;;;15.00;99.90;;;;;;5014665;28;20037;-83